Time;durP1;ratioP1;P1;durP2;ratioP2;P2;SDS_P1;SDS_P2;PMS_P1;PMS_P2;Temp;Humidity;BMP_temperature;BMP_pressure;BME280_temperature;BME280_humidity;BME280_pressure;Samples;Min_cycle;Max_cycle;Signal;HPM_P1;HPM_P2
2021/05/25 00:00:18;;;;;;;4.00;2.30;;;14.50;91.90;21.90;99183.00;;;;5068987;28;20437;-70
2021/05/25 00:02:47;;;;;;;4.20;2.30;;;14.50;92.00;21.90;99178.00;;;;5052539;28;20440;-71
2021/05/25 00:05:26;;;;;;;3.90;2.30;;;14.50;92.00;21.80;99192.00;;;;5069265;28;20472;-70
2021/05/25 00:07:52;;;;;;;4.30;2.20;;;14.40;91.70;21.90;99185.00;;;;5053185;28;20462;-70
2021/05/25 00:10:17;;;;;;;4.03;2.33;;;14.50;91.90;22.00;99176.00;;;;5068921;28;20906;-70
2021/05/25 00:12:43;;;;;;;4.50;3.00;;;14.40;91.90;21.80;99174.00;;;;5051984;28;20232;-70
2021/05/25 00:15:13;;;;;;;4.20;2.70;;;14.40;91.70;21.90;99174.00;;;;5068473;28;20951;-70
2021/05/25 00:17:38;;;;;;;4.30;2.53;;;14.40;91.80;21.90;99181.00;;;;5052156;28;20496;-70
2021/05/25 00:20:06;;;;;;;4.57;2.90;;;14.40;91.80;21.90;99186.00;;;;5069043;28;20429;-70
2021/05/25 00:22:32;;;;;;;5.90;2.90;;;14.50;91.90;21.90;99169.00;;;;5067909;28;20224;-71
2021/05/25 00:24:58;;;;;;;4.27;2.83;;;14.50;92.00;21.90;99164.00;;;;5069076;28;20923;-71
2021/05/25 00:27:24;;;;;;;4.93;2.70;;;14.40;91.80;21.80;99158.00;;;;5068847;28;20425;-71
2021/05/25 00:29:49;;;;;;;4.60;3.07;;;14.40;91.90;22.10;99153.00;;;;5069279;28;20671;-70
2021/05/25 00:32:15;;;;;;;4.57;2.80;;;14.40;92.00;22.00;99154.00;;;;5068221;28;20208;-71
2021/05/25 00:34:41;;;;;;;4.40;2.87;;;14.40;91.90;21.90;99162.00;;;;5068278;28;20220;-71
2021/05/25 00:37:06;;;;;;;4.93;3.17;;;14.40;92.00;22.00;99169.00;;;;5051688;28;20185;-70
2021/05/25 00:39:32;;;;;;;4.80;3.03;;;14.40;92.00;21.90;99175.00;;;;5068554;28;20208;-70
2021/05/25 00:41:58;;;;;;;4.20;2.63;;;14.40;92.00;21.80;99174.00;;;;5068624;28;20182;-70
2021/05/25 00:44:24;;;;;;;4.70;3.33;;;14.40;92.10;22.00;99170.00;;;;5068316;28;20318;-70
2021/05/25 00:46:51;;;;;;;4.57;3.00;;;14.40;92.10;21.80;99191.00;;;;5068859;28;20640;-71
2021/05/25 00:49:17;;;;;;;5.07;3.00;;;14.40;92.10;21.90;99186.00;;;;5051016;28;20185;-70
2021/05/25 00:51:43;;;;;;;4.53;2.97;;;14.40;92.00;21.90;99181.00;;;;5051771;28;20454;-70
2021/05/25 00:54:09;;;;;;;4.37;3.10;;;14.40;92.10;22.00;99175.00;;;;5051126;28;20187;-70
2021/05/25 00:56:34;;;;;;;4.83;2.90;;;14.40;92.00;21.90;99153.00;;;;5068102;28;20281;-70
2021/05/25 00:59:00;;;;;;;4.13;2.73;;;14.40;92.00;21.90;99167.00;;;;5068505;28;20177;-70
2021/05/25 01:01:26;;;;;;;4.60;3.07;;;14.40;92.00;22.00;99154.00;;;;5068393;28;20197;-70
2021/05/25 01:03:53;;;;;;;4.00;2.63;;;14.40;92.00;22.00;99153.00;;;;5067834;28;20639;-70
2021/05/25 01:06:19;;;;;;;4.50;2.83;;;14.40;92.10;22.00;99162.00;;;;5052024;28;20223;-71
2021/05/25 01:08:45;;;;;;;4.87;3.47;;;14.40;92.10;21.90;99151.00;;;;5069075;28;20497;-70
2021/05/25 01:11:13;;;;;;;4.73;3.20;;;14.40;92.00;22.00;99142.00;;;;5067679;28;20228;-69
2021/05/25 01:13:51;;;;;;;5.00;3.83;;;14.40;92.10;22.10;99151.00;;;;5069190;28;20527;-70
2021/05/25 01:16:17;;;;;;;4.80;3.00;;;14.40;92.10;21.90;99152.00;;;;5068405;28;20426;-70
2021/05/25 01:18:43;;;;;;;4.43;3.17;;;14.40;92.00;21.90;99147.00;;;;5067358;28;20571;-70
2021/05/25 01:21:10;;;;;;;4.50;3.57;;;14.40;92.10;21.90;99154.00;;;;5068258;28;20939;-70
2021/05/25 01:23:37;;;;;;;4.70;3.50;;;14.40;92.10;21.70;99165.00;;;;5068505;28;20411;-70
2021/05/25 01:26:03;;;;;;;4.37;3.07;;;14.40;92.10;21.80;99173.00;;;;5034039;28;20438;-71
2021/05/25 01:28:29;;;;;;;5.27;3.60;;;14.40;92.20;21.90;99169.00;;;;5068088;28;20431;-70
2021/05/25 01:30:55;;;;;;;4.97;3.33;;;14.40;92.20;21.80;99170.00;;;;5068800;28;20460;-70
2021/05/25 01:33:25;;;;;;;4.90;3.50;;;14.40;92.20;21.80;99170.00;;;;5068120;28;20182;-70
2021/05/25 01:35:51;;;;;;;4.57;3.43;;;14.40;92.20;22.00;99174.00;;;;5067581;28;20468;-70
2021/05/25 01:38:17;;;;;;;4.53;3.03;;;14.40;92.10;21.90;99163.00;;;;5067867;28;20463;-71
2021/05/25 01:40:43;;;;;;;4.90;3.03;;;14.40;92.20;22.10;99163.00;;;;5050615;28;20733;-70
2021/05/25 01:43:09;;;;;;;5.83;3.70;;;14.40;92.10;21.80;99169.00;;;;5052331;28;20910;-70
2021/05/25 01:45:35;;;;;;;4.60;3.00;;;14.40;92.10;21.80;99158.00;;;;5071022;28;20725;-70
2021/05/25 01:48:03;;;;;;;4.40;2.87;;;14.40;92.10;21.90;99163.00;;;;5072962;28;20178;-70
2021/05/25 01:50:29;;;;;;;5.20;3.30;;;14.40;92.20;21.80;99163.00;;;;5055326;28;20726;-70
2021/05/25 01:53:03;;;;;;;4.50;3.30;;;14.40;92.20;21.90;99170.00;;;;5070640;28;20438;-69
2021/05/25 01:55:52;;;;;;;4.47;2.70;;;14.40;92.20;22.00;99166.00;;;;5071373;28;20466;-69
2021/05/25 01:58:21;;;;;;;4.23;3.00;;;14.40;92.20;21.80;99158.00;;;;5072076;28;20435;-70
2021/05/25 02:00:53;;;;;;;5.30;3.33;;;14.40;92.10;21.90;99163.00;;;;5054398;28;20447;-69
2021/05/25 02:03:19;;;;;;;4.50;3.00;;;14.40;92.10;21.70;99158.00;;;;5071853;28;20576;-71
2021/05/25 02:05:46;;;;;;;4.33;3.10;;;14.40;92.10;21.90;99160.00;;;;5071103;28;20490;-70
2021/05/25 02:08:12;;;;;;;5.27;3.33;;;14.40;92.10;21.80;99161.00;;;;5053869;28;20219;-70
2021/05/25 02:10:44;;;;;;;4.43;3.03;;;14.40;92.20;21.70;99164.00;;;;5071036;28;20465;-70
2021/05/25 02:13:17;;;;;;;6.10;4.27;;;14.40;92.00;21.90;99164.00;;;;5070862;28;20533;-70
2021/05/25 02:15:45;;;;;;;5.07;3.40;;;14.40;92.20;21.80;99153.00;;;;5053916;28;20554;-70
2021/05/25 02:18:14;;;;;;;4.77;3.40;;;14.40;92.10;21.80;99161.00;;;;5071112;28;20418;-70
2021/05/25 02:20:41;;;;;;;4.40;3.00;;;14.40;92.20;21.80;99165.00;;;;5053480;28;20575;-70
2021/05/25 02:23:07;;;;;;;4.27;3.10;;;14.40;92.10;21.80;99171.00;;;;5054352;28;20443;-71
2021/05/25 02:25:33;;;;;;;5.50;3.67;;;14.40;92.20;21.90;99175.00;;;;5070622;28;20479;-70
2021/05/25 02:28:00;;;;;;;5.00;3.30;;;14.40;92.20;21.90;99175.00;;;;5054023;28;20185;-70
2021/05/25 02:30:28;;;;;;;4.60;3.30;;;14.40;92.20;21.90;99176.00;;;;5070522;28;20821;-71
2021/05/25 02:32:54;;;;;;;4.50;3.17;;;14.40;92.20;21.90;99180.00;;;;5054302;28;20543;-71
2021/05/25 02:35:20;;;;;;;4.80;2.70;;;14.40;92.20;21.90;99180.00;;;;5071589;28;20451;-71
2021/05/25 02:37:46;;;;;;;4.30;2.90;;;14.40;92.10;21.90;99169.00;;;;5070963;28;20484;-71
2021/05/25 02:40:12;;;;;;;4.37;2.93;;;14.40;92.10;21.80;99186.00;;;;5053315;28;20243;-71
2021/05/25 02:42:38;;;;;;;4.30;3.30;;;14.40;92.10;21.80;99185.00;;;;5053861;28;20450;-71
2021/05/25 02:45:05;;;;;;;4.40;2.77;;;14.40;92.10;21.80;99189.00;;;;5070346;28;20535;-71
2021/05/25 02:47:31;;;;;;;5.10;3.10;;;14.40;92.10;21.80;99185.00;;;;5054032;28;20444;-71
2021/05/25 02:50:06;;;;;;;4.70;3.03;;;14.40;92.10;21.90;99184.00;;;;5070013;28;20462;-71
2021/05/25 02:52:52;;;;;;;3.93;2.30;;;14.40;92.10;21.70;99198.00;;;;5070391;28;20979;-69
2021/05/25 02:55:23;;;;;;;4.20;2.80;;;14.40;92.10;21.80;99198.00;;;;5055165;28;20437;-69
2021/05/25 02:57:49;;;;;;;4.67;2.93;;;14.40;92.10;21.90;99203.00;;;;5069570;28;20432;-69
2021/05/25 03:00:24;;;;;;;4.10;2.83;;;14.40;92.00;21.90;99198.00;;;;5070387;28;20451;-69
2021/05/25 03:02:50;;;;;;;4.27;2.87;;;14.40;92.00;21.90;99198.00;;;;5054470;28;20429;-69
2021/05/25 03:05:16;;;;;;;4.00;2.70;;;14.40;92.00;21.80;99193.00;;;;5069801;28;20479;-69
2021/05/25 03:07:42;;;;;;;4.40;3.13;;;14.40;92.00;21.90;99180.00;;;;5053432;28;20440;-70
2021/05/25 03:10:10;;;;;;;4.57;2.93;;;14.40;92.00;21.90;99206.00;;;;5069592;28;20465;-70
2021/05/25 03:12:36;;;;;;;4.00;2.80;;;14.40;92.00;21.80;99196.00;;;;5053365;28;20964;-70
2021/05/25 03:15:05;;;;;;;4.53;3.03;;;14.40;91.90;21.80;99194.00;;;;5069946;28;20434;-70
2021/05/25 03:17:30;;;;;;;5.10;3.10;;;14.40;92.40;21.80;99202.00;;;;5069625;28;20923;-70
2021/05/25 03:19:56;;;;;;;4.57;2.70;;;14.40;92.00;21.90;99196.00;;;;5053186;28;20466;-70
2021/05/25 03:22:22;;;;;;;4.63;2.70;;;14.40;92.00;21.80;99208.00;;;;5053094;28;20548;-70
2021/05/25 03:24:48;;;;;;;4.87;2.77;;;14.40;92.00;21.90;99213.00;;;;5068921;28;20181;-70
2021/05/25 03:27:13;;;;;;;4.33;2.80;;;14.40;92.00;21.80;99216.00;;;;5069598;28;20193;-70
2021/05/25 03:29:39;;;;;;;4.20;2.57;;;14.40;92.00;21.90;99220.00;;;;5053351;28;20881;-70
2021/05/25 03:32:05;;;;;;;6.40;3.00;;;14.40;92.00;22.00;99234.00;;;;5070124;28;20250;-70
2021/05/25 03:34:31;;;;;;;4.23;3.03;;;14.40;92.00;21.90;99226.00;;;;5053317;28;20547;-70
2021/05/25 03:36:56;;;;;;;4.00;2.33;;;14.40;91.90;21.80;99241.00;;;;5070405;28;20181;-69
2021/05/25 03:39:22;;;;;;;4.00;2.70;;;14.40;91.90;21.90;99228.00;;;;5068889;28;20589;-69
2021/05/25 03:41:48;;;;;;;4.27;2.67;;;14.40;91.90;21.70;99239.00;;;;5069539;28;20201;-70
2021/05/25 03:44:14;;;;;;;4.50;2.97;;;14.40;91.90;21.70;99238.00;;;;5069649;28;20178;-69
2021/05/25 03:46:43;;;;;;;4.03;2.50;;;14.40;91.90;21.90;99237.00;;;;5052330;28;20961;-69
2021/05/25 03:49:09;;;;;;;5.97;2.63;;;14.40;91.90;21.70;99246.00;;;;5069446;28;20701;-70
2021/05/25 03:51:35;;;;;;;4.23;3.07;;;14.40;91.90;21.80;99261.00;;;;5052089;28;20487;-70
2021/05/25 03:54:08;;;;;;;4.10;2.63;;;14.40;91.90;21.80;99265.00;;;;5068670;28;20435;-70
2021/05/25 03:56:46;;;;;;;4.50;2.97;;;14.40;91.90;21.80;99257.00;;;;5069496;28;20450;-70
2021/05/25 03:59:12;;;;;;;4.87;2.60;;;14.40;91.90;21.70;99264.00;;;;5070349;28;20520;-70
2021/05/25 04:01:37;;;;;;;4.23;2.60;;;14.40;91.90;21.70;99277.00;;;;5069038;28;20491;-70
2021/05/25 04:04:03;;;;;;;4.87;2.57;;;14.40;91.80;21.80;99258.00;;;;5069001;28;20181;-70
2021/05/25 04:06:29;;;;;;;4.07;2.57;;;14.40;91.80;21.70;99264.00;;;;5068401;28;20280;-70
2021/05/25 04:08:55;;;;;;;3.70;2.50;;;14.40;91.80;21.60;99260.00;;;;5069089;28;20467;-70
2021/05/25 04:11:20;;;;;;;4.13;2.43;;;14.40;91.80;22.00;99258.00;;;;5069135;28;20213;-70
2021/05/25 04:13:46;;;;;;;4.10;2.67;;;14.40;91.80;22.00;99270.00;;;;5052150;28;20205;-70
2021/05/25 04:16:13;;;;;;;4.10;2.57;;;14.40;91.80;21.70;99275.00;;;;5070027;28;20197;-71
2021/05/25 04:18:40;;;;;;;4.03;2.53;;;14.40;91.80;21.80;99266.00;;;;5036315;28;20666;-71
2021/05/25 04:21:05;;;;;;;4.10;2.57;;;14.40;91.80;21.90;99265.00;;;;5068413;28;20489;-71
2021/05/25 04:23:31;;;;;;;3.90;2.50;;;14.40;91.80;21.80;99259.00;;;;5069044;28;20447;-72
2021/05/25 04:25:57;;;;;;;4.47;2.60;;;14.40;91.80;21.90;99264.00;;;;5068676;28;20276;-71
2021/05/25 04:28:23;;;;;;;3.97;2.50;;;14.40;91.80;21.80;99278.00;;;;5068103;28;20178;-72
2021/05/25 04:30:49;;;;;;;4.00;2.40;;;14.40;91.80;21.80;99276.00;;;;5068859;28;20262;-71
2021/05/25 04:33:15;;;;;;;4.83;3.10;;;14.40;91.70;21.90;99283.00;;;;5069025;28;20455;-71
2021/05/25 04:35:40;;;;;;;4.67;2.33;;;14.40;91.70;21.60;99284.00;;;;5068247;28;20940;-71
2021/05/25 04:38:06;;;;;;;4.43;2.80;;;14.40;91.70;21.90;99283.00;;;;5068860;28;20446;-72
2021/05/25 04:40:33;;;;;;;4.23;2.67;;;14.40;91.70;21.90;99288.00;;;;5068820;28;20266;-72
2021/05/25 04:42:59;;;;;;;4.00;2.40;;;14.40;91.70;21.90;99288.00;;;;5067696;28;20638;-72
2021/05/25 04:45:25;;;;;;;4.23;2.60;;;14.40;91.70;21.60;99295.00;;;;5069089;28;20433;-72
2021/05/25 04:47:51;;;;;;;4.03;2.37;;;14.40;91.70;21.70;99305.00;;;;5069847;28;20810;-72
2021/05/25 04:50:18;;;;;;;3.83;2.43;;;14.40;91.70;21.50;99295.00;;;;5051814;28;20669;-72
2021/05/25 04:52:44;;;;;;;3.47;2.00;;;14.40;91.70;21.90;99287.00;;;;5051846;28;20728;-72
2021/05/25 04:55:12;;;;;;;4.10;2.40;;;14.40;91.70;21.70;99291.00;;;;5067536;28;20426;-72
2021/05/25 04:57:38;;;;;;;4.10;2.63;;;14.40;91.70;21.70;99304.00;;;;5035173;28;20230;-71
2021/05/25 05:00:06;;;;;;;4.07;2.47;;;14.40;91.70;21.70;99307.00;;;;5051878;28;20466;-74
2021/05/25 05:02:32;;;;;;;4.07;2.40;;;14.40;91.60;21.90;99295.00;;;;5068027;28;21007;-71
2021/05/25 05:04:58;;;;;;;3.90;2.33;;;14.40;91.60;21.80;99308.00;;;;5068200;28;20491;-72
2021/05/25 05:07:24;;;;;;;4.13;2.50;;;14.40;91.60;21.70;99315.00;;;;5067869;28;20674;-71
2021/05/25 05:09:49;;;;;;;3.83;2.37;;;14.40;91.60;21.80;99320.00;;;;5069083;28;20792;-71
2021/05/25 05:12:15;;;;;;;3.80;2.17;;;14.40;91.60;21.70;99317.00;;;;5051764;28;20702;-71
2021/05/25 05:14:41;;;;;;;3.90;2.30;;;14.40;91.60;21.80;99308.00;;;;5068473;28;20666;-71
2021/05/25 05:17:06;;;;;;;4.00;2.50;;;14.40;91.60;21.80;99324.00;;;;5067822;28;20181;-72
2021/05/25 05:19:32;;;;;;;3.87;2.27;;;14.40;91.60;21.80;99336.00;;;;5072844;28;20598;-71
2021/05/25 05:21:58;;;;;;;4.10;2.30;;;14.40;91.60;22.00;99329.00;;;;5055344;28;20181;-71
2021/05/25 05:24:24;;;;;;;4.03;2.40;;;14.40;91.60;21.90;99326.00;;;;5054721;28;20255;-72
2021/05/25 05:26:50;;;;;;;4.60;2.70;;;14.40;91.60;21.80;99335.00;;;;5055488;28;20546;-71
2021/05/25 05:29:15;;;;;;;3.73;2.20;;;14.40;91.60;21.90;99337.00;;;;5071967;28;20217;-72
2021/05/25 05:31:41;;;;;;;3.83;2.43;;;14.40;91.60;21.80;99344.00;;;;5071164;28;20225;-71
2021/05/25 05:34:07;;;;;;;3.63;2.13;;;14.40;91.60;21.80;99353.00;;;;5071881;28;20174;-72
2021/05/25 05:36:33;;;;;;;3.53;2.00;;;14.40;91.70;21.80;99359.00;;;;5071793;28;20216;-71
2021/05/25 05:38:59;;;;;;;4.03;2.43;;;14.40;91.70;21.80;99367.00;;;;5054506;28;20941;-71
2021/05/25 05:41:24;;;;;;;4.83;2.47;;;14.40;91.70;21.70;99368.00;;;;5054784;28;20201;-71
2021/05/25 05:43:50;;;;;;;3.67;2.03;;;14.40;91.80;21.70;99363.00;;;;5072001;28;20817;-72
2021/05/25 05:46:16;;;;;;;4.07;2.50;;;14.40;91.70;21.80;99361.00;;;;5070692;28;20282;-72
2021/05/25 05:48:42;;;;;;;3.73;2.13;;;14.40;91.80;21.80;99359.00;;;;5071699;28;20625;-71
2021/05/25 05:51:08;;;;;;;3.90;2.23;;;14.40;91.80;21.70;99358.00;;;;5055022;28;20426;-72
2021/05/25 05:53:34;;;;;;;4.00;2.30;;;14.40;91.80;21.70;99382.00;;;;5070797;28;20540;-71
2021/05/25 05:56:00;;;;;;;3.70;2.10;;;14.40;91.80;21.70;99379.00;;;;5072361;28;20232;-71
2021/05/25 05:58:25;;;;;;;3.60;2.03;;;14.40;91.80;21.70;99390.00;;;;5070662;28;20555;-71
2021/05/25 06:00:51;;;;;;;4.17;2.50;;;14.40;91.70;21.70;99389.00;;;;5071237;28;20193;-72
2021/05/25 06:03:17;;;;;;;4.00;2.50;;;14.40;91.80;21.90;99394.00;;;;5071366;28;20581;-71
2021/05/25 06:05:42;;;;;;;4.10;2.40;;;14.40;91.70;21.80;99397.00;;;;5070869;28;20228;-72
2021/05/25 06:08:09;;;;;;;4.07;2.20;;;14.40;91.70;21.70;99401.00;;;;5054568;28;20216;-71
2021/05/25 06:10:37;;;;;;;3.70;2.13;;;14.40;91.70;21.90;99400.00;;;;5071355;28;20288;-72
2021/05/25 06:13:03;;;;;;;4.00;2.23;;;14.40;91.70;21.80;99401.00;;;;5054057;28;20532;-72
2021/05/25 06:15:30;;;;;;;3.70;2.03;;;14.40;91.70;21.80;99410.00;;;;5054368;28;20436;-72
2021/05/25 06:17:55;;;;;;;4.20;2.70;;;14.40;91.70;21.80;99423.00;;;;5071345;28;20935;-72
2021/05/25 06:20:21;;;;;;;4.00;2.27;;;14.40;91.70;21.80;99425.00;;;;5071712;28;20516;-72
2021/05/25 06:22:47;;;;;;;3.43;2.00;;;14.40;91.70;21.80;99431.00;;;;5054493;28;20177;-72
2021/05/25 06:25:13;;;;;;;3.53;1.93;;;14.40;92.00;21.90;99437.00;;;;5053677;28;20243;-72
2021/05/25 06:27:39;;;;;;;3.53;1.93;;;14.40;91.70;21.90;99440.00;;;;5070283;28;20480;-72
2021/05/25 06:30:07;;;;;;;3.63;1.90;;;14.40;91.70;22.00;99444.00;;;;5069620;28;20444;-71
2021/05/25 06:32:33;;;;;;;4.00;2.20;;;14.40;91.70;22.00;99451.00;;;;5070658;28;20458;-72
2021/05/25 06:34:59;;;;;;;3.53;1.90;;;14.40;91.70;21.90;99448.00;;;;5053424;28;20948;-72
2021/05/25 06:37:25;;;;;;;5.10;2.27;;;14.40;91.70;21.90;99445.00;;;;5070379;28;20431;-71
2021/05/25 06:39:50;;;;;;;3.80;2.20;;;14.40;91.70;21.80;99455.00;;;;5070420;28;20213;-71
2021/05/25 06:42:16;;;;;;;3.67;2.10;;;14.40;91.70;21.70;99461.00;;;;5070080;28;20181;-72
2021/05/25 06:44:42;;;;;;;4.37;2.13;;;14.40;91.70;21.70;99467.00;;;;5072093;28;20252;-71
2021/05/25 06:47:07;;;;;;;4.30;2.10;;;14.40;91.70;21.70;99463.00;;;;5053892;28;20203;-71
2021/05/25 06:49:33;;;;;;;4.37;2.20;;;14.40;91.70;21.60;99477.00;;;;5070220;28;20675;-71
2021/05/25 06:51:59;;;;;;;4.20;2.17;;;14.40;91.70;21.60;99468.00;;;;5053470;28;20212;-72
2021/05/25 06:54:25;;;;;;;3.60;2.00;;;14.40;91.70;21.70;99468.00;;;;5052931;28;20532;-71
2021/05/25 06:56:50;;;;;;;4.03;2.33;;;14.40;91.70;21.70;99460.00;;;;5070409;28;20698;-71
2021/05/25 06:59:16;;;;;;;3.80;2.00;;;14.40;91.70;21.60;99475.00;;;;5070427;28;20177;-73
2021/05/25 07:01:42;;;;;;;6.10;2.17;;;14.40;91.70;21.70;99480.00;;;;5069636;28;20308;-71
2021/05/25 07:04:08;;;;;;;4.43;2.30;;;14.40;91.70;21.80;99489.00;;;;5071356;28;20178;-71
2021/05/25 07:06:33;;;;;;;4.77;2.33;;;14.40;91.70;21.70;99496.00;;;;5070308;28;20201;-71
2021/05/25 07:08:59;;;;;;;4.00;2.40;;;14.40;91.70;21.80;99499.00;;;;5069667;28;20262;-70
2021/05/25 07:11:25;;;;;;;4.73;2.20;;;14.40;91.70;21.70;99499.00;;;;5052972;28;20224;-70
2021/05/25 07:13:50;;;;;;;4.17;2.30;;;14.40;91.90;21.60;99505.00;;;;5069794;28;20182;-72
2021/05/25 07:16:16;;;;;;;3.80;2.10;;;14.40;91.80;21.70;99500.00;;;;5070588;28;20197;-71
2021/05/25 07:18:42;;;;;;;4.43;2.07;;;14.40;91.80;21.70;99510.00;;;;5069651;28;20186;-71
2021/05/25 07:21:08;;;;;;;4.40;1.97;;;14.40;91.80;21.70;99510.00;;;;5069966;28;20284;-71
2021/05/25 07:23:34;;;;;;;5.37;2.20;;;14.40;91.80;21.80;99518.00;;;;5069071;28;20507;-72
2021/05/25 07:26:01;;;;;;;3.50;1.60;;;14.40;91.70;21.80;99510.00;;;;5052892;28;21038;-71
2021/05/25 07:28:26;;;;;;;3.80;1.90;;;14.40;91.80;21.70;99511.00;;;;5052868;28;20418;-71
2021/05/25 07:30:52;;;;;;;4.40;1.93;;;14.40;91.80;21.60;99505.00;;;;5068854;28;20426;-71
2021/05/25 07:33:19;;;;;;;4.37;1.93;;;14.40;91.80;21.60;99494.00;;;;5070676;28;20442;-72
2021/05/25 07:35:45;;;;;;;4.40;1.90;;;14.40;91.80;21.60;99490.00;;;;5069865;28;20201;-72
2021/05/25 07:38:11;;;;;;;3.77;1.77;;;14.40;91.80;21.60;99503.00;;;;5069098;28;20883;-72
2021/05/25 07:40:41;;;;;;;3.90;1.60;;;14.40;91.80;21.70;99507.00;;;;5069113;28;20437;-72
2021/05/25 07:43:07;;;;;;;3.63;1.80;;;14.40;91.80;21.70;99513.00;;;;5069125;28;20780;-72
2021/05/25 07:45:32;;;;;;;3.40;1.70;;;14.40;91.70;21.70;99508.00;;;;5068747;28;20452;-72
2021/05/25 07:47:58;;;;;;;4.50;1.77;;;14.40;91.80;21.60;99519.00;;;;5069402;28;20189;-71
2021/05/25 07:50:24;;;;;;;4.10;1.87;;;14.40;91.80;21.60;99530.00;;;;5069389;28;20475;-72
2021/05/25 07:52:53;;;;;;;4.77;2.17;;;14.40;91.80;21.60;99530.00;;;;5069901;28;20658;-72
2021/05/25 07:55:21;;;;;;;3.60;1.67;;;14.40;91.80;21.80;99544.00;;;;5068591;28;20214;-72
2021/05/25 07:57:47;;;;;;;3.90;2.00;;;14.40;91.80;21.90;99548.00;;;;5068218;28;20527;-72
2021/05/25 08:00:14;;;;;;;3.93;1.73;;;14.40;91.80;21.60;99550.00;;;;5070416;28;20465;-73
2021/05/25 08:02:41;;;;;;;3.70;1.70;;;14.40;91.80;21.70;99535.00;;;;5068960;28;20414;-72
2021/05/25 08:05:07;;;;;;;3.60;1.67;;;14.40;91.80;21.80;99545.00;;;;5068431;28;20895;-72
2021/05/25 08:07:33;;;;;;;3.60;1.80;;;14.40;91.80;21.70;99536.00;;;;5052615;28;20418;-74
2021/05/25 08:10:02;;;;;;;3.40;1.60;;;14.40;91.80;21.70;99534.00;;;;5068467;28;20488;-73
2021/05/25 08:12:29;;;;;;;3.60;1.80;;;14.40;91.80;21.80;99555.00;;;;5068190;28;20266;-75
2021/05/25 08:14:55;;;;;;;3.33;1.80;;;14.40;91.80;21.80;99551.00;;;;5069025;28;20459;-74
2021/05/25 08:17:26;;;;;;;3.60;1.80;;;14.40;91.80;21.70;99553.00;;;;5069237;28;20414;-73
2021/05/25 08:19:53;;;;;;;4.37;1.80;;;14.40;91.80;21.70;99569.00;;;;5068235;28;20447;-72
2021/05/25 08:22:18;;;;;;;3.80;1.80;;;14.40;91.70;21.70;99598.00;;;;5051769;28;20422;-72
2021/05/25 08:24:45;;;;;;;3.80;1.80;;;14.40;91.80;21.70;99600.00;;;;5069247;28;20417;-73
2021/05/25 08:27:10;;;;;;;3.50;1.50;;;14.40;91.80;21.80;99601.00;;;;5066472;28;20185;-72
2021/05/25 08:29:36;;;;;;;4.10;1.90;;;14.40;91.70;21.80;99604.00;;;;5067548;28;20413;-73
2021/05/25 08:32:02;;;;;;;3.60;2.00;;;14.40;91.80;21.80;99593.00;;;;5068154;28;20205;-73
2021/05/25 08:34:28;;;;;;;3.47;1.50;;;14.40;91.80;21.70;99601.00;;;;5050253;28;20208;-73
2021/05/25 08:36:53;;;;;;;3.77;1.73;;;14.40;91.70;21.70;99618.00;;;;5069259;28;20543;-73
2021/05/25 08:39:19;;;;;;;3.80;1.70;;;14.40;92.10;21.60;99601.00;;;;5068027;28;20268;-73
2021/05/25 08:41:45;;;;;;;3.60;1.80;;;14.40;91.70;21.80;99611.00;;;;5067697;28;20198;-73
2021/05/25 08:44:12;;;;;;;4.60;1.83;;;14.40;91.70;21.80;99614.00;;;;5068311;28;20179;-73
2021/05/25 08:46:42;;;;;;;4.60;1.57;;;14.40;91.70;21.80;99620.00;;;;5068550;28;20446;-72
2021/05/25 08:49:11;;;;;;;3.40;1.40;;;14.40;91.70;21.70;99619.00;;;;5033448;28;20436;-73
2021/05/25 08:51:37;;;;;;;3.87;1.80;;;14.40;91.70;21.80;99621.00;;;;5067965;28;20479;-73
2021/05/25 08:54:03;;;;;;;3.60;1.53;;;14.40;91.70;21.80;99634.00;;;;5054296;28;20522;-73
2021/05/25 08:56:29;;;;;;;3.40;1.50;;;14.40;91.70;21.80;99628.00;;;;5071765;28;20193;-73
2021/05/25 08:58:55;;;;;;;4.10;1.70;;;14.40;91.70;21.90;99629.00;;;;5055761;28;20993;-73
2021/05/25 09:01:20;;;;;;;3.50;1.53;;;14.40;91.70;21.70;99632.00;;;;5073335;28;20499;-73
2021/05/25 09:04:06;;;;;;;3.97;1.80;;;14.40;91.70;21.90;99633.00;;;;5072142;28;20177;-73
2021/05/25 09:06:43;;;;;;;4.63;1.53;;;14.40;91.70;22.10;99633.00;;;;5072523;28;20213;-73
2021/05/25 09:09:11;;;;;;;3.70;1.60;;;14.40;91.70;21.90;99635.00;;;;5068465;28;20453;-73
2021/05/25 09:12:13;;;;;;;4.33;2.17;;;14.40;91.70;21.90;99621.00;;;;5070411;28;20577;-74
2021/05/25 09:14:50;;;;;;;3.37;1.30;;;14.40;91.70;22.00;99632.00;;;;5089592;28;21011;-74
2021/05/25 09:17:22;;;;;;;3.50;1.50;;;14.40;91.70;21.90;99634.00;;;;5073250;28;20530;-73
2021/05/25 09:19:53;;;;;;;3.90;1.90;;;14.50;91.90;21.90;99634.00;;;;5073108;28;20427;-73
2021/05/25 09:22:40;;;;;;;3.27;1.40;;;14.40;91.70;21.90;99641.00;;;;5055518;28;20788;-73
2021/05/25 09:25:19;;;;;;;3.63;1.47;;;14.40;91.70;22.00;99635.00;;;;5054537;28;20557;-73
2021/05/25 09:27:57;;;;;;;3.10;1.30;;;14.50;91.80;22.10;99636.00;;;;5035331;28;20769;-73
2021/05/25 09:30:25;;;;;;;4.13;1.50;;;14.50;91.80;22.00;99641.00;;;;5050964;28;20447;-73
2021/05/25 09:33:00;;;;;;;3.73;1.70;;;14.50;91.80;22.00;99633.00;;;;5051296;28;20990;-73
2021/05/25 09:35:34;;;;;;;3.43;1.40;;;14.50;91.80;22.00;99615.00;;;;5050408;28;20834;-73
2021/05/25 09:38:07;;;;;;;3.60;1.53;;;14.50;91.80;21.90;99629.00;;;;5034502;28;20556;-73
2021/05/25 09:40:34;;;;;;;5.70;1.40;;;14.40;91.70;22.00;99607.00;;;;5051157;28;20834;-73
2021/05/25 09:43:21;;;;;;;4.90;1.80;;;14.50;91.80;22.10;99622.00;;;;5051691;28;20498;-73
2021/05/25 09:46:13;;;;;;;3.97;1.53;;;14.50;91.80;22.10;99604.00;;;;5052375;28;20808;-73
2021/05/25 09:48:45;;;;;;;3.30;1.30;;;14.50;91.80;21.90;99622.00;;;;5051235;28;20432;-73
2021/05/25 09:51:25;;;;;;;3.83;1.50;;;14.50;91.80;22.10;99636.00;;;;5050351;28;20492;-73
2021/05/25 09:53:51;;;;;;;3.37;1.30;;;14.50;91.80;21.90;99645.00;;;;5051911;28;20802;-73
2021/05/25 09:56:26;;;;;;;3.57;1.30;;;14.50;91.80;22.10;99625.00;;;;5050994;28;20439;-73
2021/05/25 09:58:53;;;;;;;3.23;1.20;;;14.50;91.80;22.10;99623.00;;;;5034668;28;20474;-73
2021/05/25 10:01:19;;;;;;;3.60;1.30;;;14.50;91.80;22.20;99634.00;;;;5051240;28;20422;-73
2021/05/25 10:03:52;;;;;;;3.20;1.30;;;14.50;91.80;22.30;99639.00;;;;5062121;28;20435;-73
2021/05/25 10:06:18;;;;;;;3.50;1.60;;;14.50;91.80;22.20;99648.00;;;;5053207;28;20722;-73
2021/05/25 10:08:45;;;;;;;3.33;1.40;;;14.50;91.80;22.20;99643.00;;;;5070769;28;20431;-73
2021/05/25 10:11:15;;;;;;;3.10;1.20;;;14.50;91.80;22.20;99634.00;;;;5069530;28;20541;-73
2021/05/25 10:13:40;;;;;;;3.40;1.50;;;14.50;91.80;22.20;99625.00;;;;5054357;28;20431;-73
2021/05/25 10:16:08;;;;;;;3.60;1.60;;;14.50;91.80;22.20;99627.00;;;;5037514;28;20478;-73
2021/05/25 10:18:38;;;;;;;3.60;1.43;;;14.50;91.80;22.00;99629.00;;;;5053740;28;20197;-72
2021/05/25 10:21:11;;;;;;;4.03;1.53;;;14.50;91.80;22.20;99632.00;;;;5054474;28;20451;-72
2021/05/25 10:23:37;;;;;;;4.23;1.53;;;14.50;91.80;22.20;99632.00;;;;5038159;28;20439;-73
2021/05/25 10:26:20;;;;;;;3.30;1.43;;;14.50;91.70;22.20;99629.00;;;;5052457;28;20512;-72
2021/05/25 10:28:47;;;;;;;3.40;1.50;;;14.50;91.70;22.20;99637.00;;;;5038935;28;20478;-72
2021/05/25 10:31:38;;;;;;;3.67;1.37;;;14.50;91.80;22.20;99629.00;;;;5036522;28;20463;-73
2021/05/25 10:34:21;;;;;;;3.63;1.30;;;14.50;91.70;22.10;99628.00;;;;5053421;28;20422;-72
2021/05/25 10:36:54;;;;;;;4.37;1.57;;;14.50;91.70;22.20;99647.00;;;;5070544;28;20444;-72
2021/05/25 10:39:42;;;;;;;3.03;1.10;;;14.50;91.70;22.20;99652.00;;;;5053125;28;20422;-72
2021/05/25 10:42:24;;;;;;;3.30;1.10;;;14.50;91.70;22.20;99643.00;;;;5069219;28;20584;-72
2021/05/25 10:45:17;;;;;;;3.50;1.43;;;14.50;91.70;22.30;99647.00;;;;5071103;28;20421;-72
2021/05/25 10:48:07;;;;;;;3.50;1.47;;;14.50;91.70;22.30;99654.00;;;;5071249;28;20458;-72
2021/05/25 10:50:37;;;;;;;3.30;1.20;;;14.50;91.70;22.30;99669.00;;;;5069708;28;20448;-72
2021/05/25 10:53:04;;;;;;;4.37;1.30;;;14.50;91.70;22.40;99669.00;;;;5038269;28;20872;-72
2021/05/25 10:55:35;;;;;;;3.40;1.27;;;14.50;91.70;22.20;99669.00;;;;5069252;28;20430;-72
2021/05/25 10:58:35;;;;;;;4.17;1.60;;;14.50;91.70;22.40;99676.00;;;;5070099;28;20439;-72